createdAt,value
2023-05-19T00:00:34.687Z,97346.19
2023-05-19T00:03:19.943Z,97350.53
2023-05-19T00:06:05.414Z,97348.88
2023-05-19T00:08:50.668Z,97351.09
2023-05-19T00:11:36.124Z,97349.47
2023-05-19T00:14:23.898Z,97346.19
2023-05-19T00:17:09.388Z,97347.56
2023-05-19T00:19:54.589Z,97347.81
2023-05-19T00:22:39.959Z,97343.47
2023-05-19T00:25:25.257Z,97348.66
2023-05-19T00:28:10.747Z,97339.66
2023-05-19T00:30:56.346Z,97340.50
2023-05-19T00:33:41.730Z,97335.56
2023-05-19T00:36:27.257Z,97333.97
2023-05-19T00:39:12.563Z,97327.41
2023-05-19T00:41:57.948Z,97328.78
2023-05-19T00:44:43.384Z,97331.25
2023-05-19T00:47:29.032Z,97330.16
2023-05-19T00:50:14.376Z,97326.09
2023-05-19T00:52:59.566Z,97327.44
2023-05-19T00:55:44.917Z,97323.34
2023-05-19T00:58:30.473Z,97325.81
2023-05-19T01:01:15.904Z,97324.19
2023-05-19T01:04:01.428Z,97324.44
2023-05-19T01:06:46.435Z,97320.91
2023-05-19T01:09:31.730Z,97324.72
2023-05-19T01:12:17.334Z,97319.25
2023-05-19T01:15:02.682Z,97319.81
2023-05-19T01:17:47.798Z,97320.38
2023-05-19T01:20:33.335Z,97317.91
2023-05-19T01:23:18.595Z,97316.81
2023-05-19T01:26:03.982Z,97320.38
2023-05-19T01:28:50.463Z,97323.06
2023-05-19T01:31:35.649Z,97331.25
2023-05-19T01:34:21.212Z,97320.91
2023-05-19T01:37:06.358Z,97326.06
2023-05-19T01:39:51.713Z,97326.06
2023-05-19T01:42:37.150Z,97325.81
2023-05-19T01:45:22.528Z,97335.59
2023-05-19T01:48:10.596Z,97326.06
2023-05-19T01:50:56.218Z,97326.91
2023-05-19T01:53:42.603Z,97327.13
2023-05-19T01:56:27.881Z,97327.41
2023-05-19T01:59:13.344Z,97325.81
2023-05-19T02:01:58.768Z,97322.28
2023-05-19T02:04:44.352Z,97319.56
2023-05-19T02:07:29.524Z,97320.88
2023-05-19T02:10:14.968Z,97321.69
2023-05-19T02:13:00.324Z,97320.38
2023-05-19T02:15:45.699Z,97313.31
2023-05-19T02:18:31.064Z,97315.72
2023-05-19T02:21:16.379Z,97313.03
2023-05-19T02:24:01.846Z,97316.25
2023-05-19T02:26:47.146Z,97319.00
2023-05-19T02:29:32.583Z,97324.72
2023-05-19T02:32:17.998Z,97317.09
2023-05-19T02:35:03.354Z,97322.28
2023-05-19T02:37:48.755Z,97315.75
2023-05-19T02:40:34.194Z,97316.53
2023-05-19T02:43:19.413Z,97320.88
2023-05-19T02:46:04.968Z,97319.00
2023-05-19T02:48:50.485Z,97324.72
2023-05-19T02:51:36.103Z,97315.47
2023-05-19T02:54:21.565Z,97311.09
2023-05-19T02:57:06.885Z,97311.41
2023-05-19T02:59:52.165Z,97303.75
2023-05-19T03:02:37.813Z,97303.47
2023-05-19T03:05:23.090Z,97300.78
2023-05-19T03:08:08.461Z,97301.34
2023-05-19T03:10:54.142Z,97301.59
2023-05-19T03:13:39.460Z,97301.03
2023-05-19T03:16:24.969Z,97290.44
2023-05-19T03:19:10.019Z,97296.41
2023-05-19T03:21:55.571Z,97294.50
2023-05-19T03:24:40.864Z,97289.63
2023-05-19T03:27:26.294Z,97291.78
2023-05-19T03:30:11.562Z,97285.03
2023-05-19T03:32:57.253Z,97287.16
2023-05-19T03:35:44.994Z,97293.19
2023-05-19T03:38:30.148Z,97286.59
2023-05-19T03:41:15.426Z,97289.06
2023-05-19T03:44:00.815Z,97287.72
2023-05-19T03:46:46.021Z,97292.34
2023-05-19T03:49:31.412Z,97291.56
2023-05-19T03:52:16.777Z,97301.84
2023-05-19T03:55:02.018Z,97298.63
2023-05-19T03:57:47.370Z,97309.47
2023-05-19T04:00:32.977Z,97307.31
2023-05-19T04:03:18.841Z,97312.47
2023-05-19T04:06:04.386Z,97317.63
2023-05-19T04:08:49.854Z,97316.00
2023-05-19T04:11:35.325Z,97318.97
2023-05-19T04:14:20.770Z,97316.00
2023-05-19T04:17:06.184Z,97324.41
2023-05-19T04:19:51.495Z,97316.28
2023-05-19T04:22:36.751Z,97318.19
2023-05-19T04:25:22.043Z,97321.69
2023-05-19T04:28:07.415Z,97318.72
2023-05-19T04:30:53.024Z,97321.19
2023-05-19T04:33:38.347Z,97318.75
2023-05-19T04:36:23.724Z,97325.00
2023-05-19T04:39:08.982Z,97323.38
2023-05-19T04:41:54.117Z,97326.63
2023-05-19T04:44:39.533Z,97324.72
2023-05-19T04:47:24.898Z,97327.69
2023-05-19T04:50:10.306Z,97327.97
2023-05-19T04:52:55.678Z,97322.50
2023-05-19T04:55:40.852Z,97333.16
2023-05-19T04:58:26.238Z,97337.19
2023-05-19T05:01:11.457Z,97337.47
2023-05-19T05:03:56.962Z,97337.44
2023-05-19T05:06:42.126Z,97335.25
2023-05-19T05:09:27.408Z,97334.97
2023-05-19T05:12:12.758Z,97328.19
2023-05-19T05:14:58.214Z,97332.00
2023-05-19T05:17:43.879Z,97323.03
2023-05-19T05:20:29.159Z,97315.16
2023-05-19T05:23:14.468Z,97321.94
2023-05-19T05:25:59.786Z,97320.34
2023-05-19T05:28:45.002Z,97325.50
2023-05-19T05:31:30.435Z,97323.59
2023-05-19T05:34:15.766Z,97324.69
2023-05-19T05:37:01.140Z,97323.06
2023-05-19T05:39:46.549Z,97324.97
2023-05-19T05:42:31.868Z,97317.06
2023-05-19T05:45:17.259Z,97325.22
2023-05-19T05:48:02.623Z,97321.16
2023-05-19T05:50:48.106Z,97319.25
2023-05-19T05:53:33.496Z,97323.63
2023-05-19T05:56:18.850Z,97319.78
2023-05-19T05:59:04.113Z,97319.28
2023-05-19T06:01:49.495Z,97321.72
2023-05-19T06:04:34.842Z,97320.06
2023-05-19T06:07:20.168Z,97321.69
2023-05-19T06:10:05.532Z,97320.63
2023-05-19T06:12:50.781Z,97313.81
2023-05-19T06:15:36.176Z,97315.72
2023-05-19T06:18:21.465Z,97314.91
2023-05-19T06:21:06.850Z,97312.72
2023-05-19T06:23:52.231Z,97309.72
2023-05-19T06:26:37.419Z,97308.91
2023-05-19T06:29:22.645Z,97308.91
2023-05-19T06:32:07.887Z,97307.00
2023-05-19T06:34:53.263Z,97299.94
2023-05-19T06:37:38.708Z,97301.31
2023-05-19T06:40:23.999Z,97304.84
2023-05-19T06:43:09.525Z,97301.56
2023-05-19T06:45:54.820Z,97308.38
2023-05-19T06:48:40.188Z,97301.31
2023-05-19T06:51:25.538Z,97303.75
2023-05-19T06:54:10.966Z,97301.03
2023-05-19T06:56:56.289Z,97296.94
2023-05-19T06:59:41.571Z,97297.22
2023-05-19T07:02:27.100Z,97290.16
2023-05-19T07:05:12.083Z,97292.59
2023-05-19T07:07:57.471Z,97290.69
2023-05-19T07:10:42.796Z,97295.06
2023-05-19T07:13:28.180Z,97294.22
2023-05-19T07:16:13.616Z,97292.34
2023-05-19T07:18:58.971Z,97287.72
2023-05-19T07:21:44.281Z,97291.25
2023-05-19T07:24:29.906Z,97293.41
2023-05-19T07:27:15.005Z,97299.13
2023-05-19T07:30:00.399Z,97301.31
2023-05-19T07:32:45.960Z,97293.97
2023-05-19T07:35:31.338Z,97298.31
2023-05-19T07:38:16.591Z,97291.78
2023-05-19T07:41:02.020Z,97285.00
2023-05-19T07:43:47.408Z,97282.81
2023-05-19T07:46:32.837Z,97283.63
2023-05-19T07:49:18.337Z,97280.38
2023-05-19T07:52:03.638Z,97282.00
2023-05-19T07:54:48.979Z,97281.47
2023-05-19T07:57:34.353Z,97275.75
2023-05-19T08:00:19.698Z,97271.94
2023-05-19T08:03:05.163Z,97272.38
2023-05-19T08:05:50.299Z,97272.19
2023-05-19T08:08:38.656Z,97274.03
2023-05-19T08:11:23.843Z,97271.13
2023-05-19T08:14:09.082Z,97270.25
2023-05-19T08:16:54.606Z,97270.50
2023-05-19T08:19:39.980Z,97269.72
2023-05-19T08:22:25.425Z,97263.47
2023-05-19T08:25:10.785Z,97266.47
2023-05-19T08:27:55.984Z,97268.06
2023-05-19T08:30:41.342Z,97268.06
2023-05-19T08:33:26.929Z,97263.16
2023-05-19T08:36:12.268Z,97258.31
2023-05-19T08:38:57.569Z,97264.22
2023-05-19T08:41:42.756Z,97263.69
2023-05-19T08:44:27.917Z,97256.91
2023-05-19T08:47:13.200Z,97252.53
2023-05-19T08:49:58.555Z,97255.78
2023-05-19T08:52:45.350Z,97262.25
2023-05-19T08:55:32.360Z,97252.19
2023-05-19T08:58:17.609Z,97247.63
2023-05-19T09:01:02.978Z,97256.91
2023-05-19T09:03:48.327Z,97246.06
2023-05-19T09:06:33.558Z,97246.38
2023-05-19T09:09:18.918Z,97256.44
2023-05-19T09:12:04.625Z,97244.19
2023-05-19T09:14:49.924Z,97228.66
2023-05-19T09:17:35.468Z,97225.66
2023-05-19T09:20:20.835Z,97227.59
2023-05-19T09:23:06.189Z,97218.63
2023-05-19T09:25:51.515Z,97212.88
2023-05-19T09:28:36.909Z,97213.41
2023-05-19T09:31:22.294Z,97212.06
2023-05-19T09:34:07.549Z,97206.88
2023-05-19T09:36:52.942Z,97206.03
2023-05-19T09:39:38.397Z,97201.41
2023-05-19T09:42:23.616Z,97201.44
2023-05-19T09:45:09.215Z,97199.03
2023-05-19T09:47:54.573Z,97202.03
2023-05-19T09:50:40.061Z,97214.50
2023-05-19T09:53:25.524Z,97203.91
2023-05-19T09:56:10.944Z,97203.94
2023-05-19T09:58:56.496Z,97208.25
2023-05-19T10:01:41.871Z,97205.28
2023-05-19T10:04:27.185Z,97198.75
2023-05-19T10:07:12.446Z,97199.31
2023-05-19T10:09:58.663Z,97188.44
2023-05-19T10:12:44.061Z,97194.69
2023-05-19T10:15:29.320Z,97197.72
2023-05-19T10:18:14.806Z,97196.63
2023-05-19T10:21:00.049Z,97206.91
2023-05-19T10:23:45.475Z,97206.38
2023-05-19T10:26:30.731Z,97199.09
2023-05-19T10:29:16.125Z,97201.81
2023-05-19T10:32:01.742Z,97199.66
2023-05-19T10:34:46.992Z,97197.75
2023-05-19T10:37:32.101Z,97204.28
2023-05-19T10:40:17.460Z,97207.78
2023-05-19T10:43:02.684Z,97189.84
2023-05-19T10:45:47.996Z,97195.53
2023-05-19T10:48:33.408Z,97191.75
2023-05-19T10:51:19.051Z,97184.66
2023-05-19T10:54:04.275Z,97189.03
2023-05-19T10:56:49.545Z,97177.56
2023-05-19T10:59:35.039Z,97185.22
2023-05-19T11:02:20.642Z,97179.50
2023-05-19T11:05:06.090Z,97173.22
2023-05-19T11:07:51.217Z,97167.50
2023-05-19T11:10:36.466Z,97179.22
2023-05-19T11:13:22.661Z,97164.53
2023-05-19T11:16:08.613Z,97164.53
2023-05-19T11:18:53.952Z,97171.59
2023-05-19T11:21:39.356Z,97167.78
2023-05-19T11:24:24.839Z,97164.25
2023-05-19T11:27:10.079Z,97158.25
2023-05-19T11:29:55.411Z,97159.88
2023-05-19T11:32:40.845Z,97159.59
2023-05-19T11:35:26.159Z,97169.97
2023-05-19T11:38:11.525Z,97163.72
2023-05-19T11:40:56.726Z,97165.34
2023-05-19T11:43:42.024Z,97156.06
2023-05-19T11:46:27.520Z,97147.09
2023-05-19T11:49:12.605Z,97149.50
2023-05-19T11:51:58.100Z,97143.81
2023-05-19T11:54:43.496Z,97144.66
2023-05-19T11:57:28.841Z,97141.09
2023-05-19T12:00:14.200Z,97142.47
2023-05-19T12:02:59.618Z,97137.28
2023-05-19T12:05:45.287Z,97132.94
2023-05-19T12:08:30.627Z,97128.53
2023-05-19T12:11:17.478Z,97124.75
2023-05-19T12:14:03.145Z,97125.28
2023-05-19T12:16:48.496Z,97140.19
2023-05-19T12:19:34.042Z,97123.31
2023-05-19T12:22:19.317Z,97132.25
2023-05-19T12:25:04.440Z,97134.53
2023-05-19T12:27:49.740Z,97131.19
2023-05-19T12:30:35.568Z,97129.25
2023-05-19T12:33:21.211Z,97115.69
2023-05-19T12:36:06.457Z,97116.81
2023-05-19T12:38:51.655Z,97123.31
2023-05-19T12:41:36.926Z,97115.41
2023-05-19T12:44:22.212Z,97124.91
2023-05-19T12:47:07.397Z,97131.75
2023-05-19T12:49:52.725Z,97115.72
2023-05-19T12:52:38.256Z,97117.03
2023-05-19T12:55:23.581Z,97110.75
2023-05-19T12:58:09.039Z,97112.91
2023-05-19T13:00:54.620Z,97106.69
2023-05-19T13:03:39.912Z,97118.94
2023-05-19T13:06:24.787Z,97117.03
2023-05-19T13:09:09.715Z,97109.09
2023-05-19T13:11:54.812Z,97112.63
2023-05-19T13:14:40.058Z,97110.19
2023-05-19T13:17:25.411Z,97102.34
2023-05-19T13:20:10.608Z,97095.50
2023-05-19T13:22:56.038Z,97091.22
2023-05-19T13:25:41.215Z,97093.88
2023-05-19T13:28:26.394Z,97106.16
2023-05-19T13:31:11.912Z,97099.09
2023-05-19T13:33:57.055Z,97091.13
2023-05-19T13:36:42.701Z,97111.56
2023-05-19T13:39:28.052Z,97110.22
2023-05-19T13:42:13.327Z,97107.25
2023-05-19T13:44:58.754Z,97100.81
2023-05-19T13:47:43.975Z,97103.63
2023-05-19T13:50:29.409Z,97100.59
2023-05-19T13:53:14.599Z,97110.16
2023-05-19T13:55:59.879Z,97106.88
2023-05-19T13:58:45.263Z,97109.91
2023-05-19T14:01:30.647Z,97095.72
2023-05-19T14:04:16.120Z,97097.06
2023-05-19T14:07:01.447Z,97093.00
2023-05-19T14:09:46.841Z,97095.78
2023-05-19T14:12:41.338Z,97085.41
2023-05-19T14:15:32.764Z,97088.41
2023-05-19T14:18:18.342Z,97099.06
2023-05-19T14:21:03.655Z,97101.75
2023-05-19T14:23:48.903Z,97095.22
2023-05-19T14:26:34.270Z,97102.84
2023-05-19T14:29:19.708Z,97099.31
2023-05-19T14:32:05.094Z,97102.09
2023-05-19T14:34:50.398Z,97088.69
2023-05-19T14:37:35.920Z,97095.25
2023-05-19T14:40:21.218Z,97091.97
2023-05-19T14:43:06.506Z,97094.16
2023-05-19T14:45:51.738Z,97096.59
2023-05-19T14:48:37.136Z,97100.16
2023-05-19T14:51:22.487Z,97095.28
2023-05-19T14:54:07.933Z,97095.78
2023-05-19T14:56:53.246Z,97096.38
2023-05-19T14:59:38.634Z,97085.75
2023-05-19T15:02:23.964Z,97090.31
2023-05-19T15:05:09.243Z,97090.06
2023-05-19T15:07:54.660Z,97090.66
2023-05-19T15:10:40.157Z,97097.97
2023-05-19T15:13:25.517Z,97091.75
2023-05-19T15:16:17.585Z,97093.63
2023-05-19T15:19:03.901Z,97092.06
2023-05-19T15:21:49.170Z,97094.19
2023-05-19T15:24:34.473Z,97087.72
2023-05-19T15:27:19.830Z,97090.97
2023-05-19T15:30:07.598Z,97098.03
2023-05-19T15:32:54.571Z,97084.34
2023-05-19T15:35:40.529Z,97095.31
2023-05-19T15:41:10.882Z,97096.19
2023-05-19T15:43:56.290Z,97106.13
2023-05-19T15:46:42.166Z,97091.56
2023-05-19T15:49:27.623Z,97105.34
2023-05-19T15:52:13.492Z,97102.97
2023-05-19T15:55:00.458Z,97102.13
2023-05-19T15:57:45.550Z,97098.56
2023-05-19T16:00:32.224Z,97107.34
2023-05-19T16:03:17.975Z,97095.63
2023-05-19T16:06:03.258Z,97098.06
2023-05-19T16:08:48.635Z,97094.22
2023-05-19T16:11:33.912Z,97098.31
2023-05-19T16:14:19.137Z,97098.59
2023-05-19T16:17:04.652Z,97094.47
2023-05-19T16:19:49.918Z,97094.16
2023-05-19T16:22:35.262Z,97088.47
2023-05-19T16:25:20.702Z,97088.50
2023-05-19T16:28:06.168Z,97077.31
2023-05-19T16:30:51.572Z,97084.66
2023-05-19T16:33:36.858Z,97077.63
2023-05-19T16:36:22.174Z,97079.03
2023-05-19T16:39:07.471Z,97078.50
2023-05-19T16:41:52.900Z,97084.16
2023-05-19T16:44:38.226Z,97074.50
2023-05-19T16:47:23.452Z,97075.06
2023-05-19T16:50:08.881Z,97072.84
2023-05-19T16:52:54.102Z,97072.31
2023-05-19T16:55:39.413Z,97072.91
2023-05-19T16:58:24.834Z,97078.88
2023-05-19T17:01:10.226Z,97071.25
2023-05-19T17:03:55.616Z,97071.78
2023-05-19T17:06:40.934Z,97077.22
2023-05-19T17:09:26.488Z,97075.59
2023-05-19T17:12:11.857Z,97079.13
2023-05-19T17:14:57.267Z,97076.94
2023-05-19T17:17:42.689Z,97080.47
2023-05-19T17:20:27.900Z,97079.13
2023-05-19T17:23:13.384Z,97076.94
2023-05-19T17:25:58.758Z,97087.56
2023-05-19T17:28:44.342Z,97094.84
2023-05-19T17:31:30.132Z,97091.34
2023-05-19T17:34:15.333Z,97103.59
2023-05-19T17:37:00.855Z,97093.78
2023-05-19T17:39:46.107Z,97088.84
2023-05-19T17:42:32.245Z,97089.69
2023-05-19T17:45:18.227Z,97087.53
2023-05-19T17:48:03.437Z,97082.66
2023-05-19T17:50:48.849Z,97077.22
2023-05-19T17:53:34.200Z,97084.56
2023-05-19T17:56:19.548Z,97080.22
2023-05-19T17:59:04.746Z,97081.28
2023-05-19T18:01:50.652Z,97079.94
2023-05-19T18:04:35.926Z,97077.53
2023-05-19T18:07:21.302Z,97083.22
2023-05-19T18:10:06.773Z,97078.91
2023-05-19T18:12:51.963Z,97085.72
2023-05-19T18:15:37.469Z,97080.03
2023-05-19T18:18:23.004Z,97085.72
2023-05-19T18:21:08.260Z,97083.28
2023-05-19T18:23:53.708Z,97091.16
2023-05-19T18:26:38.982Z,97088.72
2023-05-19T18:29:24.471Z,97086.53
2023-05-19T18:32:09.785Z,97084.38
2023-05-19T18:34:55.272Z,97084.66
2023-05-19T18:37:40.763Z,97078.66
2023-05-19T18:40:26.096Z,97076.72
2023-05-19T18:43:14.373Z,97081.31
2023-05-19T18:45:59.804Z,97088.41
2023-05-19T18:48:44.945Z,97092.50
2023-05-19T18:51:30.178Z,97087.34
2023-05-19T18:54:15.419Z,97090.88
2023-05-19T18:57:00.866Z,97079.44
2023-05-19T18:59:45.904Z,97081.09
2023-05-19T19:02:31.213Z,97085.19
2023-05-19T19:05:16.593Z,97086.00
2023-05-19T19:08:01.874Z,97076.97
2023-05-19T19:10:47.126Z,97076.44
2023-05-19T19:13:32.397Z,97083.53
2023-05-19T19:16:17.662Z,97081.84
2023-05-19T19:19:03.160Z,97087.00
2023-05-19T19:21:48.418Z,97095.19
2023-05-19T19:24:33.888Z,97091.94
2023-05-19T19:27:18.913Z,97106.09
2023-05-19T19:30:04.459Z,97093.53
2023-05-19T19:32:49.791Z,97090.03
2023-05-19T19:35:35.166Z,97096.56
2023-05-19T19:38:20.659Z,97096.78
2023-05-19T19:41:05.993Z,97094.03
2023-05-19T19:43:51.423Z,97104.94
2023-05-19T19:46:36.961Z,97103.00
2023-05-19T19:49:22.127Z,97099.25
2023-05-19T19:52:07.496Z,97102.78
2023-05-19T19:54:52.949Z,97107.91
2023-05-19T19:57:38.409Z,97102.16
2023-05-19T20:00:23.692Z,97102.25
2023-05-19T20:03:09.131Z,97103.03
2023-05-19T20:05:54.322Z,97110.66
2023-05-19T20:08:39.753Z,97105.75
2023-05-19T20:11:25.168Z,97107.19
2023-05-19T20:14:10.517Z,97104.22
2023-05-19T20:16:55.925Z,97108.84
2023-05-19T20:19:41.138Z,97103.63
2023-05-19T20:22:26.386Z,97090.63
2023-05-19T20:25:11.888Z,97103.69
2023-05-19T20:27:57.179Z,97101.19
2023-05-19T20:30:42.675Z,97098.47
2023-05-19T20:33:28.122Z,97097.16
2023-05-19T20:36:13.547Z,97109.91
2023-05-19T20:38:58.895Z,97105.00
2023-05-19T20:41:44.503Z,97086.50
2023-05-19T20:44:29.792Z,97100.69
2023-05-19T20:47:15.114Z,97096.31
2023-05-19T20:50:00.488Z,97106.34
2023-05-19T20:52:45.947Z,97101.41
2023-05-19T20:55:31.540Z,97098.97
2023-05-19T20:58:17.940Z,97100.28
2023-05-19T21:01:03.351Z,97101.91
2023-05-19T21:03:48.877Z,97099.25
2023-05-19T21:06:34.261Z,97102.47
2023-05-19T21:09:19.498Z,97095.13
2023-05-19T21:12:04.919Z,97098.09
2023-05-19T21:14:50.360Z,97097.84
2023-05-19T21:17:35.953Z,97100.06
2023-05-19T21:20:21.427Z,97095.34
2023-05-19T21:23:06.754Z,97089.41
2023-05-19T21:25:52.201Z,97091.28
2023-05-19T21:28:37.672Z,97087.75
2023-05-19T21:31:23.313Z,97098.34
2023-05-19T21:34:08.575Z,97094.03
2023-05-19T21:36:54.016Z,97098.38
2023-05-19T21:39:39.309Z,97088.06
2023-05-19T21:42:24.745Z,97090.53
2023-05-19T21:45:10.408Z,97084.44
2023-05-19T21:47:55.882Z,97091.59
2023-05-19T21:50:41.400Z,97091.84
2023-05-19T21:53:26.744Z,97087.97
2023-05-19T21:56:12.086Z,97083.44
2023-05-19T21:58:57.544Z,97080.47
2023-05-19T22:01:42.965Z,97076.66
2023-05-19T22:04:28.276Z,97075.81
2023-05-19T22:07:13.626Z,97061.34
2023-05-19T22:09:59.138Z,97063.84
2023-05-19T22:12:44.480Z,97061.56
2023-05-19T22:15:29.941Z,97069.84
2023-05-19T22:18:15.450Z,97083.19
2023-05-19T22:21:00.673Z,97077.94
2023-05-19T22:23:46.078Z,97079.91
2023-05-19T22:26:31.417Z,97073.97
2023-05-19T22:29:16.812Z,97082.31
2023-05-19T22:32:02.311Z,97085.03
2023-05-19T22:34:47.596Z,97073.09
2023-05-19T22:37:33.064Z,97066.81
2023-05-19T22:40:18.301Z,97076.06
2023-05-19T22:43:03.717Z,97072.44
2023-05-19T22:45:49.219Z,97067.88
2023-05-19T22:48:34.511Z,97066.34
2023-05-19T22:51:19.954Z,97076.91
2023-05-19T22:54:05.296Z,97068.47
2023-05-19T22:56:50.401Z,97068.19
2023-05-19T22:59:35.791Z,97068.44
2023-05-19T23:02:20.945Z,97066.06
2023-05-19T23:05:06.440Z,97071.78
2023-05-19T23:07:51.831Z,97064.94
2023-05-19T23:10:37.226Z,97059.22
2023-05-19T23:13:22.596Z,97057.06
2023-05-19T23:16:08.064Z,97060.84
2023-05-19T23:18:53.542Z,97069.56
2023-05-19T23:21:38.891Z,97064.34
2023-05-19T23:24:24.291Z,97066.00
2023-05-19T23:27:09.568Z,97052.75
2023-05-19T23:29:54.898Z,97063.56
2023-05-19T23:32:40.190Z,97061.44
2023-05-19T23:35:25.505Z,97055.69
2023-05-19T23:38:10.931Z,97055.84
2023-05-19T23:40:56.177Z,97049.47
2023-05-19T23:43:43.888Z,97057.06
2023-05-19T23:46:29.008Z,97049.97
2023-05-19T23:49:14.350Z,97050.53
2023-05-19T23:51:59.765Z,97049.19
2023-05-19T23:54:45.178Z,97049.44
2023-05-19T23:57:30.651Z,97054.94
